sensor_id;sensor_type;location;lat;lon;timestamp;P1;durP1;ratioP1;P2;durP2;ratioP2
67715;SDS011;54508;43.238;25.306;2023-03-01T00:00:37;1.70;;;1.20;;
67715;SDS011;54508;43.238;25.306;2023-03-01T00:03:02;1.38;;;1.27;;
67715;SDS011;54508;43.238;25.306;2023-03-01T00:05:28;1.60;;;1.40;;
67715;SDS011;54508;43.238;25.306;2023-03-01T00:07:53;1.73;;;1.40;;
67715;SDS011;54508;43.238;25.306;2023-03-01T00:10:19;1.13;;;1.02;;
67715;SDS011;54508;43.238;25.306;2023-03-01T00:12:44;1.30;;;1.00;;
67715;SDS011;54508;43.238;25.306;2023-03-01T00:15:10;1.40;;;1.00;;
67715;SDS011;54508;43.238;25.306;2023-03-01T00:17:36;1.65;;;1.17;;
67715;SDS011;54508;43.238;25.306;2023-03-01T00:20:02;1.50;;;1.10;;
67715;SDS011;54508;43.238;25.306;2023-03-01T00:22:28;2.08;;;1.00;;
67715;SDS011;54508;43.238;25.306;2023-03-01T00:24:53;1.37;;;1.07;;
67715;SDS011;54508;43.238;25.306;2023-03-01T00:27:20;1.13;;;1.00;;
67715;SDS011;54508;43.238;25.306;2023-03-01T00:29:45;1.23;;;1.00;;
67715;SDS011;54508;43.238;25.306;2023-03-01T00:32:11;1.60;;;1.10;;
67715;SDS011;54508;43.238;25.306;2023-03-01T00:34:37;1.20;;;1.00;;
67715;SDS011;54508;43.238;25.306;2023-03-01T00:37:02;1.63;;;1.20;;
67715;SDS011;54508;43.238;25.306;2023-03-01T00:39:30;1.20;;;0.90;;
67715;SDS011;54508;43.238;25.306;2023-03-01T00:41:56;1.23;;;0.80;;
67715;SDS011;54508;43.238;25.306;2023-03-01T00:44:22;1.87;;;1.20;;
67715;SDS011;54508;43.238;25.306;2023-03-01T00:46:50;1.50;;;1.05;;
67715;SDS011;54508;43.238;25.306;2023-03-01T00:49:22;1.70;;;1.17;;
67715;SDS011;54508;43.238;25.306;2023-03-01T00:51:49;1.40;;;1.30;;
67715;SDS011;54508;43.238;25.306;2023-03-01T00:54:14;1.33;;;1.00;;
67715;SDS011;54508;43.238;25.306;2023-03-01T00:56:40;1.45;;;0.90;;
67715;SDS011;54508;43.238;25.306;2023-03-01T00:59:05;1.30;;;0.80;;
67715;SDS011;54508;43.238;25.306;2023-03-01T01:01:31;1.67;;;0.97;;
67715;SDS011;54508;43.238;25.306;2023-03-01T01:03:57;1.17;;;0.93;;
67715;SDS011;54508;43.238;25.306;2023-03-01T01:06:32;1.25;;;0.93;;
67715;SDS011;54508;43.238;25.306;2023-03-01T01:08:59;1.48;;;1.10;;
67715;SDS011;54508;43.238;25.306;2023-03-01T01:11:25;1.27;;;1.17;;
67715;SDS011;54508;43.238;25.306;2023-03-01T01:13:52;1.40;;;1.00;;
67715;SDS011;54508;43.238;25.306;2023-03-01T01:16:19;1.40;;;1.10;;
67715;SDS011;54508;43.238;25.306;2023-03-01T01:18:46;2.25;;;1.35;;
67715;SDS011;54508;43.238;25.306;2023-03-01T01:21:13;1.40;;;1.10;;
67715;SDS011;54508;43.238;25.306;2023-03-01T01:23:40;1.95;;;1.30;;
67715;SDS011;54508;43.238;25.306;2023-03-01T01:26:07;1.95;;;1.13;;
67715;SDS011;54508;43.238;25.306;2023-03-01T01:28:35;1.33;;;1.08;;
67715;SDS011;54508;43.238;25.306;2023-03-01T01:31:01;2.13;;;1.20;;
67715;SDS011;54508;43.238;25.306;2023-03-01T01:33:54;1.48;;;1.20;;
67715;SDS011;54508;43.238;25.306;2023-03-01T01:36:20;1.40;;;1.13;;
67715;SDS011;54508;43.238;25.306;2023-03-01T01:38:46;1.40;;;1.10;;
67715;SDS011;54508;43.238;25.306;2023-03-01T01:41:12;1.87;;;1.20;;
67715;SDS011;54508;43.238;25.306;2023-03-01T01:43:39;1.40;;;1.10;;
67715;SDS011;54508;43.238;25.306;2023-03-01T01:48:55;1.40;;;1.30;;
67715;SDS011;54508;43.238;25.306;2023-03-01T01:51:25;1.50;;;1.27;;
67715;SDS011;54508;43.238;25.306;2023-03-01T01:53:55;2.13;;;1.48;;
67715;SDS011;54508;43.238;25.306;2023-03-01T01:56:24;1.25;;;1.10;;
67715;SDS011;54508;43.238;25.306;2023-03-01T01:58:51;2.20;;;1.45;;
67715;SDS011;54508;43.238;25.306;2023-03-01T02:01:17;1.73;;;1.00;;
67715;SDS011;54508;43.238;25.306;2023-03-01T02:03:46;2.03;;;1.33;;
67715;SDS011;54508;43.238;25.306;2023-03-01T02:09:11;1.73;;;1.30;;
67715;SDS011;54508;43.238;25.306;2023-03-01T02:11:39;1.92;;;1.45;;
67715;SDS011;54508;43.238;25.306;2023-03-01T02:14:05;1.38;;;1.10;;
67715;SDS011;54508;43.238;25.306;2023-03-01T02:16:31;1.67;;;1.30;;
67715;SDS011;54508;43.238;25.306;2023-03-01T02:18:56;1.30;;;1.10;;
67715;SDS011;54508;43.238;25.306;2023-03-01T02:21:37;1.60;;;1.35;;
67715;SDS011;54508;43.238;25.306;2023-03-01T02:24:40;1.98;;;1.60;;
67715;SDS011;54508;43.238;25.306;2023-03-01T02:27:28;1.65;;;1.30;;
67715;SDS011;54508;43.238;25.306;2023-03-01T02:30:26;1.50;;;1.20;;
67715;SDS011;54508;43.238;25.306;2023-03-01T02:32:52;2.45;;;1.33;;
67715;SDS011;54508;43.238;25.306;2023-03-01T02:35:27;1.70;;;1.30;;
67715;SDS011;54508;43.238;25.306;2023-03-01T02:37:53;1.80;;;1.30;;
67715;SDS011;54508;43.238;25.306;2023-03-01T02:40:22;3.10;;;1.20;;
67715;SDS011;54508;43.238;25.306;2023-03-01T02:42:52;1.40;;;1.10;;
67715;SDS011;54508;43.238;25.306;2023-03-01T02:45:20;3.72;;;1.33;;
67715;SDS011;54508;43.238;25.306;2023-03-01T02:47:46;1.45;;;1.20;;
67715;SDS011;54508;43.238;25.306;2023-03-01T02:53:02;2.25;;;1.30;;
67715;SDS011;54508;43.238;25.306;2023-03-01T02:55:36;1.30;;;1.10;;
67715;SDS011;54508;43.238;25.306;2023-03-01T02:58:02;1.92;;;1.10;;
67715;SDS011;54508;43.238;25.306;2023-03-01T03:00:30;1.30;;;0.90;;
67715;SDS011;54508;43.238;25.306;2023-03-01T03:03:00;1.77;;;1.13;;
67715;SDS011;54508;43.238;25.306;2023-03-01T03:05:27;1.38;;;1.17;;
67715;SDS011;54508;43.238;25.306;2023-03-01T03:07:54;1.40;;;1.10;;
67715;SDS011;54508;43.238;25.306;2023-03-01T03:10:24;3.65;;;1.50;;
67715;SDS011;54508;43.238;25.306;2023-03-01T03:12:56;2.15;;;1.10;;
67715;SDS011;54508;43.238;25.306;2023-03-01T03:15:26;4.22;;;1.42;;
67715;SDS011;54508;43.238;25.306;2023-03-01T03:17:52;2.75;;;1.52;;
67715;SDS011;54508;43.238;25.306;2023-03-01T03:20:19;1.90;;;1.20;;
67715;SDS011;54508;43.238;25.306;2023-03-01T03:22:50;2.17;;;1.60;;
67715;SDS011;54508;43.238;25.306;2023-03-01T03:25:17;1.50;;;1.25;;
67715;SDS011;54508;43.238;25.306;2023-03-01T03:27:43;1.67;;;1.20;;
67715;SDS011;54508;43.238;25.306;2023-03-01T03:30:10;2.42;;;1.30;;
67715;SDS011;54508;43.238;25.306;2023-03-01T03:32:42;2.08;;;1.70;;
67715;SDS011;54508;43.238;25.306;2023-03-01T03:35:17;1.73;;;1.40;;
67715;SDS011;54508;43.238;25.306;2023-03-01T03:37:44;1.85;;;1.45;;
67715;SDS011;54508;43.238;25.306;2023-03-01T03:40:38;2.07;;;1.57;;
67715;SDS011;54508;43.238;25.306;2023-03-01T03:43:06;4.18;;;2.33;;
67715;SDS011;54508;43.238;25.306;2023-03-01T03:45:33;1.70;;;1.30;;
67715;SDS011;54508;43.238;25.306;2023-03-01T03:48:00;1.95;;;1.60;;
67715;SDS011;54508;43.238;25.306;2023-03-01T03:50:26;1.45;;;1.25;;
67715;SDS011;54508;43.238;25.306;2023-03-01T03:52:51;1.40;;;1.20;;
67715;SDS011;54508;43.238;25.306;2023-03-01T03:55:20;1.83;;;1.63;;
67715;SDS011;54508;43.238;25.306;2023-03-01T03:57:46;1.80;;;1.60;;
67715;SDS011;54508;43.238;25.306;2023-03-01T04:00:17;2.35;;;1.50;;
67715;SDS011;54508;43.238;25.306;2023-03-01T04:02:44;1.80;;;1.40;;
67715;SDS011;54508;43.238;25.306;2023-03-01T04:05:12;1.40;;;1.30;;
67715;SDS011;54508;43.238;25.306;2023-03-01T04:07:39;1.48;;;1.23;;
67715;SDS011;54508;43.238;25.306;2023-03-01T04:10:06;1.50;;;1.27;;
67715;SDS011;54508;43.238;25.306;2023-03-01T04:12:33;1.80;;;1.17;;
67715;SDS011;54508;43.238;25.306;2023-03-01T04:15:03;1.67;;;1.30;;
67715;SDS011;54508;43.238;25.306;2023-03-01T04:17:39;1.88;;;1.60;;
67715;SDS011;54508;43.238;25.306;2023-03-01T04:20:07;1.25;;;1.08;;
67715;SDS011;54508;43.238;25.306;2023-03-01T04:22:41;1.83;;;1.40;;
67715;SDS011;54508;43.238;25.306;2023-03-01T04:25:07;1.87;;;1.33;;
67715;SDS011;54508;43.238;25.306;2023-03-01T04:27:35;1.48;;;1.38;;
67715;SDS011;54508;43.238;25.306;2023-03-01T04:30:18;1.70;;;1.60;;
67715;SDS011;54508;43.238;25.306;2023-03-01T04:32:44;1.88;;;1.70;;
67715;SDS011;54508;43.238;25.306;2023-03-01T04:35:09;2.37;;;1.53;;
67715;SDS011;54508;43.238;25.306;2023-03-01T04:37:34;2.77;;;1.63;;
67715;SDS011;54508;43.238;25.306;2023-03-01T04:40:00;1.90;;;1.50;;
67715;SDS011;54508;43.238;25.306;2023-03-01T04:42:38;2.55;;;1.90;;
67715;SDS011;54508;43.238;25.306;2023-03-01T04:45:04;2.20;;;1.70;;
67715;SDS011;54508;43.238;25.306;2023-03-01T04:47:38;2.45;;;1.60;;
67715;SDS011;54508;43.238;25.306;2023-03-01T04:50:08;2.00;;;1.50;;
67715;SDS011;54508;43.238;25.306;2023-03-01T04:52:34;1.77;;;1.53;;
67715;SDS011;54508;43.238;25.306;2023-03-01T04:55:00;1.88;;;1.70;;
67715;SDS011;54508;43.238;25.306;2023-03-01T04:57:26;1.83;;;1.42;;
67715;SDS011;54508;43.238;25.306;2023-03-01T04:59:51;2.47;;;1.60;;
67715;SDS011;54508;43.238;25.306;2023-03-01T05:02:17;2.10;;;1.60;;
67715;SDS011;54508;43.238;25.306;2023-03-01T05:04:42;2.00;;;1.67;;
67715;SDS011;54508;43.238;25.306;2023-03-01T05:07:08;2.23;;;1.63;;
67715;SDS011;54508;43.238;25.306;2023-03-01T05:09:34;2.20;;;1.87;;
67715;SDS011;54508;43.238;25.306;2023-03-01T05:11:59;1.88;;;1.52;;
67715;SDS011;54508;43.238;25.306;2023-03-01T05:14:30;2.20;;;1.40;;
67715;SDS011;54508;43.238;25.306;2023-03-01T05:17:07;2.97;;;2.00;;
67715;SDS011;54508;43.238;25.306;2023-03-01T05:19:42;2.00;;;1.60;;
67715;SDS011;54508;43.238;25.306;2023-03-01T05:22:07;2.40;;;1.60;;
67715;SDS011;54508;43.238;25.306;2023-03-01T05:24:34;2.00;;;1.77;;
67715;SDS011;54508;43.238;25.306;2023-03-01T05:27:00;2.08;;;1.48;;
67715;SDS011;54508;43.238;25.306;2023-03-01T05:29:27;2.00;;;1.70;;
67715;SDS011;54508;43.238;25.306;2023-03-01T05:31:54;2.63;;;1.40;;
67715;SDS011;54508;43.238;25.306;2023-03-01T05:34:30;1.90;;;1.70;;
67715;SDS011;54508;43.238;25.306;2023-03-01T05:36:58;2.83;;;1.63;;
67715;SDS011;54508;43.238;25.306;2023-03-01T05:39:24;2.53;;;1.67;;
67715;SDS011;54508;43.238;25.306;2023-03-01T05:41:58;2.63;;;1.70;;
67715;SDS011;54508;43.238;25.306;2023-03-01T05:44:25;2.50;;;1.73;;
67715;SDS011;54508;43.238;25.306;2023-03-01T05:46:51;2.47;;;1.77;;
67715;SDS011;54508;43.238;25.306;2023-03-01T05:49:17;3.05;;;1.90;;
67715;SDS011;54508;43.238;25.306;2023-03-01T05:51:43;2.53;;;1.70;;
67715;SDS011;54508;43.238;25.306;2023-03-01T05:54:14;2.38;;;2.00;;
67715;SDS011;54508;43.238;25.306;2023-03-01T05:56:39;2.20;;;1.65;;
67715;SDS011;54508;43.238;25.306;2023-03-01T05:59:07;2.17;;;1.60;;
67715;SDS011;54508;43.238;25.306;2023-03-01T06:01:36;1.70;;;1.50;;
67715;SDS011;54508;43.238;25.306;2023-03-01T06:04:03;1.80;;;1.60;;
67715;SDS011;54508;43.238;25.306;2023-03-01T06:06:29;2.17;;;1.60;;
67715;SDS011;54508;43.238;25.306;2023-03-01T06:08:55;2.38;;;1.88;;
67715;SDS011;54508;43.238;25.306;2023-03-01T06:11:21;2.40;;;1.83;;
67715;SDS011;54508;43.238;25.306;2023-03-01T06:13:47;3.17;;;1.80;;
67715;SDS011;54508;43.238;25.306;2023-03-01T06:16:13;2.25;;;1.83;;
67715;SDS011;54508;43.238;25.306;2023-03-01T06:18:38;11.38;;;6.55;;
67715;SDS011;54508;43.238;25.306;2023-03-01T06:21:05;16.58;;;11.82;;
67715;SDS011;54508;43.238;25.306;2023-03-01T06:23:31;18.77;;;11.80;;
67715;SDS011;54508;43.238;25.306;2023-03-01T06:25:57;15.20;;;10.60;;
67715;SDS011;54508;43.238;25.306;2023-03-01T06:28:23;12.48;;;9.05;;
67715;SDS011;54508;43.238;25.306;2023-03-01T06:30:49;13.83;;;9.63;;
67715;SDS011;54508;43.238;25.306;2023-03-01T06:33:15;10.30;;;8.30;;
67715;SDS011;54508;43.238;25.306;2023-03-01T06:35:40;12.70;;;10.10;;
67715;SDS011;54508;43.238;25.306;2023-03-01T06:38:06;10.97;;;7.30;;
67715;SDS011;54508;43.238;25.306;2023-03-01T06:40:31;11.38;;;8.70;;
67715;SDS011;54508;43.238;25.306;2023-03-01T06:42:57;13.13;;;11.47;;
67715;SDS011;54508;43.238;25.306;2023-03-01T06:45:23;13.13;;;10.98;;
67715;SDS011;54508;43.238;25.306;2023-03-01T06:47:49;8.40;;;7.00;;
67715;SDS011;54508;43.238;25.306;2023-03-01T06:50:15;10.65;;;6.70;;
67715;SDS011;54508;43.238;25.306;2023-03-01T06:52:42;8.25;;;6.47;;
67715;SDS011;54508;43.238;25.306;2023-03-01T06:55:09;8.10;;;4.85;;
67715;SDS011;54508;43.238;25.306;2023-03-01T06:57:35;5.57;;;5.00;;
67715;SDS011;54508;43.238;25.306;2023-03-01T07:00:01;8.03;;;4.90;;
67715;SDS011;54508;43.238;25.306;2023-03-01T07:02:38;6.55;;;4.70;;
67715;SDS011;54508;43.238;25.306;2023-03-01T07:05:04;6.13;;;4.60;;
67715;SDS011;54508;43.238;25.306;2023-03-01T07:07:29;9.82;;;4.97;;
67715;SDS011;54508;43.238;25.306;2023-03-01T07:09:55;8.90;;;4.47;;
67715;SDS011;54508;43.238;25.306;2023-03-01T07:12:20;10.37;;;5.10;;
67715;SDS011;54508;43.238;25.306;2023-03-01T07:14:46;7.18;;;4.60;;
67715;SDS011;54508;43.238;25.306;2023-03-01T07:17:11;5.97;;;4.10;;
67715;SDS011;54508;43.238;25.306;2023-03-01T07:19:37;6.17;;;3.67;;
67715;SDS011;54508;43.238;25.306;2023-03-01T07:22:03;7.45;;;4.50;;
67715;SDS011;54508;43.238;25.306;2023-03-01T07:24:29;10.02;;;4.57;;
67715;SDS011;54508;43.238;25.306;2023-03-01T07:26:55;5.15;;;3.90;;
67715;SDS011;54508;43.238;25.306;2023-03-01T07:29:20;6.47;;;4.03;;
67715;SDS011;54508;43.238;25.306;2023-03-01T07:31:46;5.77;;;4.07;;
67715;SDS011;54508;43.238;25.306;2023-03-01T07:34:11;12.05;;;4.15;;
67715;SDS011;54508;43.238;25.306;2023-03-01T07:36:39;4.40;;;3.03;;
67715;SDS011;54508;43.238;25.306;2023-03-01T07:39:10;3.88;;;2.67;;
67715;SDS011;54508;43.238;25.306;2023-03-01T07:41:36;11.60;;;3.13;;
67715;SDS011;54508;43.238;25.306;2023-03-01T07:44:02;6.03;;;4.10;;
67715;SDS011;54508;43.238;25.306;2023-03-01T07:46:27;6.15;;;4.00;;
67715;SDS011;54508;43.238;25.306;2023-03-01T07:48:53;8.25;;;4.57;;
67715;SDS011;54508;43.238;25.306;2023-03-01T07:51:18;7.23;;;3.80;;
67715;SDS011;54508;43.238;25.306;2023-03-01T07:53:47;9.17;;;3.50;;
67715;SDS011;54508;43.238;25.306;2023-03-01T07:56:35;5.22;;;4.00;;
67715;SDS011;54508;43.238;25.306;2023-03-01T07:59:01;5.20;;;3.47;;
67715;SDS011;54508;43.238;25.306;2023-03-01T08:01:28;4.97;;;3.20;;
67715;SDS011;54508;43.238;25.306;2023-03-01T08:03:57;7.53;;;3.30;;
67715;SDS011;54508;43.238;25.306;2023-03-01T08:06:22;8.05;;;3.38;;
67715;SDS011;54508;43.238;25.306;2023-03-01T08:08:48;6.47;;;3.30;;
67715;SDS011;54508;43.238;25.306;2023-03-01T08:11:14;6.30;;;3.77;;
67715;SDS011;54508;43.238;25.306;2023-03-01T08:13:40;7.05;;;3.97;;
67715;SDS011;54508;43.238;25.306;2023-03-01T08:16:07;9.13;;;6.93;;
67715;SDS011;54508;43.238;25.306;2023-03-01T08:18:35;11.75;;;6.50;;
67715;SDS011;54508;43.238;25.306;2023-03-01T08:21:04;10.33;;;6.90;;
67715;SDS011;54508;43.238;25.306;2023-03-01T08:23:31;12.50;;;5.43;;
67715;SDS011;54508;43.238;25.306;2023-03-01T08:26:18;12.23;;;5.40;;
67715;SDS011;54508;43.238;25.306;2023-03-01T08:28:44;8.45;;;5.30;;
67715;SDS011;54508;43.238;25.306;2023-03-01T08:31:29;7.45;;;5.07;;
67715;SDS011;54508;43.238;25.306;2023-03-01T08:33:58;11.32;;;5.90;;
67715;SDS011;54508;43.238;25.306;2023-03-01T08:36:26;8.13;;;5.13;;
67715;SDS011;54508;43.238;25.306;2023-03-01T08:38:55;7.45;;;4.63;;
67715;SDS011;54508;43.238;25.306;2023-03-01T08:41:21;10.98;;;5.28;;
67715;SDS011;54508;43.238;25.306;2023-03-01T08:43:47;15.40;;;6.13;;
67715;SDS011;54508;43.238;25.306;2023-03-01T08:46:13;7.63;;;5.57;;
67715;SDS011;54508;43.238;25.306;2023-03-01T08:48:38;8.23;;;5.00;;
67715;SDS011;54508;43.238;25.306;2023-03-01T08:51:11;7.20;;;5.32;;
67715;SDS011;54508;43.238;25.306;2023-03-01T08:53:41;6.57;;;4.63;;
67715;SDS011;54508;43.238;25.306;2023-03-01T08:56:07;7.15;;;4.60;;
67715;SDS011;54508;43.238;25.306;2023-03-01T08:58:33;5.55;;;4.40;;
67715;SDS011;54508;43.238;25.306;2023-03-01T09:00:59;5.93;;;4.43;;
67715;SDS011;54508;43.238;25.306;2023-03-01T09:03:25;7.90;;;4.32;;
67715;SDS011;54508;43.238;25.306;2023-03-01T09:05:51;5.00;;;3.88;;
67715;SDS011;54508;43.238;25.306;2023-03-01T09:08:18;5.30;;;4.10;;
67715;SDS011;54508;43.238;25.306;2023-03-01T09:10:43;10.23;;;3.87;;
67715;SDS011;54508;43.238;25.306;2023-03-01T09:13:09;6.47;;;3.88;;
67715;SDS011;54508;43.238;25.306;2023-03-01T09:15:38;5.53;;;3.70;;
67715;SDS011;54508;43.238;25.306;2023-03-01T09:18:04;6.47;;;3.65;;
67715;SDS011;54508;43.238;25.306;2023-03-01T09:20:30;6.22;;;3.33;;
67715;SDS011;54508;43.238;25.306;2023-03-01T09:22:56;3.83;;;3.13;;
67715;SDS011;54508;43.238;25.306;2023-03-01T09:25:22;7.50;;;3.85;;
67715;SDS011;54508;43.238;25.306;2023-03-01T09:27:50;4.67;;;3.10;;
67715;SDS011;54508;43.238;25.306;2023-03-01T09:30:16;5.22;;;2.88;;
67715;SDS011;54508;43.238;25.306;2023-03-01T09:32:42;3.40;;;2.75;;
67715;SDS011;54508;43.238;25.306;2023-03-01T09:35:09;4.00;;;3.08;;
67715;SDS011;54508;43.238;25.306;2023-03-01T09:37:38;6.88;;;2.90;;
67715;SDS011;54508;43.238;25.306;2023-03-01T09:40:17;4.85;;;3.42;;
67715;SDS011;54508;43.238;25.306;2023-03-01T09:45:24;5.20;;;3.15;;
67715;SDS011;54508;43.238;25.306;2023-03-01T09:47:52;5.85;;;2.72;;
67715;SDS011;54508;43.238;25.306;2023-03-01T09:50:18;4.90;;;2.78;;
67715;SDS011;54508;43.238;25.306;2023-03-01T09:52:46;4.22;;;2.92;;
67715;SDS011;54508;43.238;25.306;2023-03-01T09:55:25;7.45;;;3.55;;
67715;SDS011;54508;43.238;25.306;2023-03-01T10:09:22;8.40;;;2.60;;
67715;SDS011;54508;43.238;25.306;2023-03-01T10:11:52;7.00;;;3.63;;
67715;SDS011;54508;43.238;25.306;2023-03-01T10:16:57;4.28;;;3.00;;
67715;SDS011;54508;43.238;25.306;2023-03-01T10:22:21;10.30;;;3.10;;
67715;SDS011;54508;43.238;25.306;2023-03-01T10:24:50;10.52;;;3.15;;
67715;SDS011;54508;43.238;25.306;2023-03-01T10:32:52;7.40;;;3.15;;
67715;SDS011;54508;43.238;25.306;2023-03-01T10:35:19;6.07;;;2.57;;
67715;SDS011;54508;43.238;25.306;2023-03-01T10:38:07;9.25;;;2.67;;
67715;SDS011;54508;43.238;25.306;2023-03-01T10:40:35;6.82;;;2.33;;
67715;SDS011;54508;43.238;25.306;2023-03-01T10:43:05;4.97;;;2.33;;
67715;SDS011;54508;43.238;25.306;2023-03-01T10:50:49;5.50;;;2.55;;
67715;SDS011;54508;43.238;25.306;2023-03-01T10:53:29;7.82;;;3.80;;
67715;SDS011;54508;43.238;25.306;2023-03-01T10:58:30;18.20;;;12.70;;
67715;SDS011;54508;43.238;25.306;2023-03-01T11:01:01;24.77;;;12.02;;
67715;SDS011;54508;43.238;25.306;2023-03-01T11:03:32;18.50;;;9.88;;
67715;SDS011;54508;43.238;25.306;2023-03-01T11:06:12;13.27;;;9.15;;
67715;SDS011;54508;43.238;25.306;2023-03-01T11:08:47;12.27;;;7.72;;
67715;SDS011;54508;43.238;25.306;2023-03-01T11:14:25;9.85;;;7.10;;
67715;SDS011;54508;43.238;25.306;2023-03-01T11:16:48;7.82;;;6.07;;
67715;SDS011;54508;43.238;25.306;2023-03-01T11:19:23;10.32;;;6.45;;
67715;SDS011;54508;43.238;25.306;2023-03-01T11:24:47;9.45;;;5.95;;
67715;SDS011;54508;43.238;25.306;2023-03-01T11:27:23;6.13;;;4.43;;
67715;SDS011;54508;43.238;25.306;2023-03-01T11:29:59;7.70;;;5.03;;
67715;SDS011;54508;43.238;25.306;2023-03-01T11:35:28;8.32;;;4.40;;
67715;SDS011;54508;43.238;25.306;2023-03-01T11:40:47;7.00;;;3.70;;
67715;SDS011;54508;43.238;25.306;2023-03-01T11:49:50;6.63;;;3.90;;
67715;SDS011;54508;43.238;25.306;2023-03-01T11:52:22;11.68;;;4.40;;
67715;SDS011;54508;43.238;25.306;2023-03-01T12:01:10;8.10;;;3.95;;
67715;SDS011;54508;43.238;25.306;2023-03-01T12:07:04;7.60;;;3.42;;
67715;SDS011;54508;43.238;25.306;2023-03-01T12:09:49;5.68;;;3.22;;
67715;SDS011;54508;43.238;25.306;2023-03-01T12:18:34;7.53;;;3.40;;
67715;SDS011;54508;43.238;25.306;2023-03-01T12:21:02;4.32;;;2.80;;
67715;SDS011;54508;43.238;25.306;2023-03-01T12:26:13;5.03;;;3.40;;
67715;SDS011;54508;43.238;25.306;2023-03-01T12:28:51;7.07;;;3.30;;
67715;SDS011;54508;43.238;25.306;2023-03-01T12:31:29;4.50;;;2.90;;
67715;SDS011;54508;43.238;25.306;2023-03-01T12:34:47;7.07;;;3.22;;
67715;SDS011;54508;43.238;25.306;2023-03-01T12:42:17;11.40;;;2.40;;
67715;SDS011;54508;43.238;25.306;2023-03-01T12:48:17;9.05;;;2.42;;
67715;SDS011;54508;43.238;25.306;2023-03-01T12:51:06;5.90;;;3.50;;
67715;SDS011;54508;43.238;25.306;2023-03-01T12:53:36;5.38;;;3.35;;
67715;SDS011;54508;43.238;25.306;2023-03-01T12:56:05;5.20;;;2.95;;
67715;SDS011;54508;43.238;25.306;2023-03-01T13:09:08;4.00;;;2.50;;
67715;SDS011;54508;43.238;25.306;2023-03-01T13:11:36;3.47;;;2.65;;
67715;SDS011;54508;43.238;25.306;2023-03-01T13:16:50;5.18;;;2.40;;
67715;SDS011;54508;43.238;25.306;2023-03-01T13:19:17;5.07;;;2.55;;
67715;SDS011;54508;43.238;25.306;2023-03-01T13:21:50;4.20;;;2.22;;
67715;SDS011;54508;43.238;25.306;2023-03-01T13:24:39;3.03;;;2.30;;
67715;SDS011;54508;43.238;25.306;2023-03-01T13:29:44;3.83;;;2.50;;
67715;SDS011;54508;43.238;25.306;2023-03-01T13:32:32;6.47;;;2.67;;
67715;SDS011;54508;43.238;25.306;2023-03-01T13:41:09;10.35;;;4.22;;
67715;SDS011;54508;43.238;25.306;2023-03-01T13:43:48;9.90;;;3.78;;
67715;SDS011;54508;43.238;25.306;2023-03-01T13:46:17;4.07;;;3.17;;
67715;SDS011;54508;43.238;25.306;2023-03-01T13:48:56;4.10;;;2.75;;
67715;SDS011;54508;43.238;25.306;2023-03-01T13:51:26;5.72;;;2.50;;
67715;SDS011;54508;43.238;25.306;2023-03-01T13:53:52;4.53;;;3.10;;
67715;SDS011;54508;43.238;25.306;2023-03-01T13:56:20;5.73;;;3.23;;
67715;SDS011;54508;43.238;25.306;2023-03-01T13:58:53;5.65;;;3.00;;
67715;SDS011;54508;43.238;25.306;2023-03-01T14:01:30;5.65;;;3.17;;
67715;SDS011;54508;43.238;25.306;2023-03-01T14:03:56;5.00;;;3.30;;
67715;SDS011;54508;43.238;25.306;2023-03-01T14:06:35;3.88;;;2.83;;
67715;SDS011;54508;43.238;25.306;2023-03-01T14:09:05;4.20;;;3.07;;
67715;SDS011;54508;43.238;25.306;2023-03-01T14:20:14;3.97;;;2.80;;
67715;SDS011;54508;43.238;25.306;2023-03-01T14:22:41;5.15;;;2.45;;
67715;SDS011;54508;43.238;25.306;2023-03-01T14:25:20;3.78;;;2.40;;
67715;SDS011;54508;43.238;25.306;2023-03-01T14:31:21;6.30;;;2.78;;
67715;SDS011;54508;43.238;25.306;2023-03-01T14:33:30;5.38;;;2.20;;
67715;SDS011;54508;43.238;25.306;2023-03-01T14:36:14;4.38;;;2.58;;
67715;SDS011;54508;43.238;25.306;2023-03-01T14:38:46;4.72;;;2.50;;
67715;SDS011;54508;43.238;25.306;2023-03-01T14:41:19;7.30;;;2.92;;
67715;SDS011;54508;43.238;25.306;2023-03-01T14:43:46;11.75;;;4.97;;
67715;SDS011;54508;43.238;25.306;2023-03-01T14:46:20;17.25;;;5.68;;
67715;SDS011;54508;43.238;25.306;2023-03-01T14:48:48;8.30;;;4.18;;
67715;SDS011;54508;43.238;25.306;2023-03-01T14:51:15;9.55;;;4.45;;
67715;SDS011;54508;43.238;25.306;2023-03-01T14:53:43;11.07;;;4.20;;
67715;SDS011;54508;43.238;25.306;2023-03-01T14:56:13;10.52;;;4.90;;
67715;SDS011;54508;43.238;25.306;2023-03-01T14:58:39;9.25;;;4.43;;
67715;SDS011;54508;43.238;25.306;2023-03-01T15:01:13;15.80;;;4.30;;
67715;SDS011;54508;43.238;25.306;2023-03-01T15:03:51;8.50;;;4.85;;
67715;SDS011;54508;43.238;25.306;2023-03-01T15:06:18;9.97;;;4.50;;
67715;SDS011;54508;43.238;25.306;2023-03-01T15:08:46;7.43;;;4.18;;
67715;SDS011;54508;43.238;25.306;2023-03-01T15:11:24;9.07;;;5.10;;
67715;SDS011;54508;43.238;25.306;2023-03-01T15:13:53;9.25;;;4.55;;
67715;SDS011;54508;43.238;25.306;2023-03-01T15:16:23;6.87;;;4.23;;
67715;SDS011;54508;43.238;25.306;2023-03-01T15:18:54;10.25;;;4.30;;
67715;SDS011;54508;43.238;25.306;2023-03-01T15:21:25;6.47;;;4.18;;
67715;SDS011;54508;43.238;25.306;2023-03-01T15:26:58;8.43;;;3.90;;
67715;SDS011;54508;43.238;25.306;2023-03-01T15:29:31;5.80;;;4.13;;
67715;SDS011;54508;43.238;25.306;2023-03-01T15:32:01;4.90;;;3.70;;
67715;SDS011;54508;43.238;25.306;2023-03-01T15:34:35;6.38;;;3.47;;
67715;SDS011;54508;43.238;25.306;2023-03-01T15:37:32;5.13;;;3.40;;
67715;SDS011;54508;43.238;25.306;2023-03-01T15:40:24;4.35;;;3.10;;
67715;SDS011;54508;43.238;25.306;2023-03-01T15:43:07;9.52;;;3.92;;
67715;SDS011;54508;43.238;25.306;2023-03-01T15:46:03;5.72;;;3.80;;
67715;SDS011;54508;43.238;25.306;2023-03-01T15:48:29;6.85;;;4.47;;
67715;SDS011;54508;43.238;25.306;2023-03-01T15:50:55;4.90;;;3.65;;
67715;SDS011;54508;43.238;25.306;2023-03-01T15:53:23;6.32;;;4.57;;
67715;SDS011;54508;43.238;25.306;2023-03-01T15:55:49;8.40;;;4.93;;
67715;SDS011;54508;43.238;25.306;2023-03-01T15:58:19;7.35;;;4.75;;
67715;SDS011;54508;43.238;25.306;2023-03-01T16:00:46;5.15;;;4.10;;
67715;SDS011;54508;43.238;25.306;2023-03-01T16:03:13;5.28;;;4.10;;
67715;SDS011;54508;43.238;25.306;2023-03-01T16:05:39;6.68;;;3.85;;
67715;SDS011;54508;43.238;25.306;2023-03-01T16:08:05;5.63;;;3.83;;
67715;SDS011;54508;43.238;25.306;2023-03-01T16:10:32;5.35;;;3.72;;
67715;SDS011;54508;43.238;25.306;2023-03-01T16:12:58;4.55;;;3.20;;
67715;SDS011;54508;43.238;25.306;2023-03-01T16:15:26;4.72;;;4.05;;
67715;SDS011;54508;43.238;25.306;2023-03-01T16:17:53;6.05;;;3.63;;
67715;SDS011;54508;43.238;25.306;2023-03-01T16:20:19;5.53;;;3.95;;
67715;SDS011;54508;43.238;25.306;2023-03-01T16:22:45;4.70;;;3.63;;
67715;SDS011;54508;43.238;25.306;2023-03-01T16:25:12;4.75;;;3.70;;
67715;SDS011;54508;43.238;25.306;2023-03-01T16:27:38;4.85;;;3.67;;
67715;SDS011;54508;43.238;25.306;2023-03-01T16:30:07;5.40;;;3.85;;
67715;SDS011;54508;43.238;25.306;2023-03-01T16:32:37;4.60;;;3.70;;
67715;SDS011;54508;43.238;25.306;2023-03-01T16:35:04;6.23;;;4.10;;
67715;SDS011;54508;43.238;25.306;2023-03-01T16:37:48;6.93;;;3.75;;
67715;SDS011;54508;43.238;25.306;2023-03-01T16:40:26;5.25;;;4.00;;
67715;SDS011;54508;43.238;25.306;2023-03-01T16:42:53;5.72;;;3.78;;
67715;SDS011;54508;43.238;25.306;2023-03-01T16:45:33;6.57;;;4.22;;
67715;SDS011;54508;43.238;25.306;2023-03-01T16:48:05;5.37;;;3.57;;
67715;SDS011;54508;43.238;25.306;2023-03-01T16:50:33;5.20;;;4.00;;